Time;durP1;ratioP1;P1;durP2;ratioP2;P2;SDS_P1;SDS_P2;PMS_P1;PMS_P2;Temp;Humidity;BMP_temperature;BMP_pressure;BME280_temperature;BME280_humidity;BME280_pressure;Samples;Min_cycle;Max_cycle;Signal;HPM_P1;HPM_P2
2021/10/19 00:02:54;;;;;;;15.35;11.52;;;;;;;-140.79;100.00;63287.88;5318940;22;20046;-62
2021/10/19 00:05:20;;;;;;;15.75;11.15;;;;;;;-140.79;100.00;63287.88;4984888;28;20499;-62
2021/10/19 00:07:45;;;;;;;16.83;11.25;;;;;;;-140.79;100.00;63287.88;4985556;28;20488;-63
2021/10/19 00:10:14;;;;;;;17.10;11.60;;;;;;;-140.79;100.00;63287.88;5005562;28;20026;-63
2021/10/19 00:12:41;;;;;;;16.45;12.02;;;;;;;-140.79;100.00;63287.88;5005565;28;20033;-63
2021/10/19 00:15:10;;;;;;;15.82;11.90;;;;;;;-140.79;100.00;63287.88;5005432;28;20061;-63
2021/10/19 00:17:36;;;;;;;16.67;11.40;;;;;;;-140.79;100.00;63287.88;5005251;28;20018;-63
2021/10/19 00:20:02;;;;;;;17.23;12.65;;;;;;;-140.79;100.00;63287.88;5005366;28;20432;-63
2021/10/19 00:22:28;;;;;;;18.15;12.73;;;;;;;-140.79;100.00;63287.88;5005540;28;20105;-63
2021/10/19 00:24:53;;;;;;;18.40;12.43;;;;;;;-140.79;100.00;63287.88;5005637;28;20107;-63
2021/10/19 00:27:18;;;;;;;15.88;11.88;;;;;;;-140.79;100.00;63287.88;5005036;28;20419;-63
2021/10/19 00:29:44;;;;;;;17.00;12.15;;;;;;;-140.79;100.00;63287.88;5005294;28;20451;-63
2021/10/19 00:32:09;;;;;;;17.45;12.27;;;;;;;-140.79;100.00;63287.88;5004114;28;20034;-63
2021/10/19 00:34:35;;;;;;;16.33;11.90;;;;;;;-140.79;100.00;63287.88;5005368;28;20061;-63
2021/10/19 00:37:00;;;;;;;17.48;12.75;;;;;;;-140.79;100.00;63287.88;5004761;28;20450;-64
2021/10/19 00:39:26;;;;;;;16.48;12.02;;;;;;;-140.79;100.00;63287.88;5004858;28;20612;-64
2021/10/19 00:41:51;;;;;;;16.55;12.63;;;;;;;-140.79;100.00;63287.88;5005405;28;20033;-62
2021/10/19 00:44:17;;;;;;;19.30;12.82;;;;;;;-140.79;100.00;63287.88;5005181;28;20092;-62
2021/10/19 00:46:42;;;;;;;17.88;12.75;;;;;;;-140.79;100.00;63287.88;5004963;28;20034;-62
2021/10/19 00:49:08;;;;;;;18.83;13.13;;;;;;;-140.79;100.00;63287.88;4987426;28;20080;-63
2021/10/19 00:51:34;;;;;;;18.23;13.32;;;;;;;-140.79;100.00;63287.88;5005288;28;20033;-63
2021/10/19 00:54:00;;;;;;;19.00;13.20;;;;;;;-140.79;100.00;63287.88;4987397;28;20037;-62
2021/10/19 00:56:25;;;;;;;18.30;13.20;;;;;;;-140.79;100.00;63287.88;5005122;28;20021;-63
2021/10/19 00:58:51;;;;;;;19.45;13.77;;;;;;;-140.79;100.00;63287.88;4987340;28;20567;-63
2021/10/19 01:01:18;;;;;;;19.35;14.27;;;;;;;-140.79;100.00;63287.88;5005016;28;20030;-63
2021/10/19 01:03:44;;;;;;;18.23;12.82;;;;;;;-140.79;100.00;63287.88;5004119;28;20494;-63
2021/10/19 01:06:09;;;;;;;18.38;13.18;;;;;;;-140.79;100.00;63287.88;5004678;28;20030;-63
2021/10/19 01:08:35;;;;;;;18.45;13.40;;;;;;;-140.79;100.00;63287.88;4987145;28;20025;-63
2021/10/19 01:11:01;;;;;;;19.48;13.88;;;;;;;-140.79;100.00;63287.88;4988993;28;20018;-63
2021/10/19 01:13:26;;;;;;;20.00;13.35;;;;;;;-140.79;100.00;63287.88;4991267;28;20154;-64
2021/10/19 01:16:10;;;;;;;17.95;12.82;;;;;;;-140.79;100.00;63287.88;5008950;28;20061;-63
2021/10/19 01:18:36;;;;;;;19.42;14.23;;;;;;;-140.79;100.00;63287.88;5008734;28;20133;-63
2021/10/19 01:21:02;;;;;;;19.70;13.82;;;;;;;-140.79;100.00;63287.88;5007638;28;20069;-63
2021/10/19 01:23:27;;;;;;;17.73;13.27;;;;;;;-140.79;100.00;63287.88;5008943;28;20049;-63
2021/10/19 01:25:53;;;;;;;17.92;13.18;;;;;;;-140.79;100.00;63287.88;5009476;28;20037;-64
2021/10/19 01:28:19;;;;;;;18.73;13.43;;;;;;;-140.79;100.00;63287.88;5008543;28;20484;-63
2021/10/19 01:30:45;;;;;;;18.17;13.18;;;;;;;-140.79;100.00;63287.88;5007748;28;20612;-61
2021/10/19 01:33:11;;;;;;;19.63;13.05;;;;;;;-140.79;100.00;63287.88;5008470;28;20121;-63
2021/10/19 01:35:37;;;;;;;18.80;13.90;;;;;;;-140.79;100.00;63287.88;5008168;28;20120;-63
2021/10/19 01:38:04;;;;;;;19.55;14.20;;;;;;;-140.79;100.00;63287.88;5008017;28;20006;-63
2021/10/19 01:40:29;;;;;;;18.75;14.02;;;;;;;-140.79;100.00;63287.88;5008278;28;20021;-63
2021/10/19 01:42:55;;;;;;;18.15;13.40;;;;;;;-140.79;100.00;63287.88;5008489;28;20175;-63
2021/10/19 01:45:20;;;;;;;18.63;13.23;;;;;;;-140.79;100.00;63287.88;5006919;28;20026;-63
2021/10/19 01:47:46;;;;;;;20.67;13.98;;;;;;;-140.79;100.00;63287.88;5007997;28;20096;-63
2021/10/19 01:50:12;;;;;;;18.45;13.60;;;;;;;-140.79;100.00;63287.88;5008397;28;20466;-64
2021/10/19 01:52:38;;;;;;;19.88;14.13;;;;;;;-140.79;100.00;63287.88;5008264;28;20029;-63
2021/10/19 01:55:04;;;;;;;17.52;13.45;;;;;;;-140.79;100.00;63287.88;5008125;28;20530;-63
2021/10/19 01:57:31;;;;;;;17.65;13.25;;;;;;;-140.79;100.00;63287.88;5008060;28;20022;-63
2021/10/19 01:59:56;;;;;;;19.83;14.05;;;;;;;-140.79;100.00;63287.88;5008334;28;20120;-63
2021/10/19 02:02:22;;;;;;;18.00;13.13;;;;;;;-140.79;100.00;63287.88;5008024;28;20076;-64
2021/10/19 02:04:47;;;;;;;20.58;14.25;;;;;;;-140.79;100.00;63287.88;5007912;28;20121;-63
2021/10/19 02:07:13;;;;;;;19.08;14.23;;;;;;;-140.79;100.00;63287.88;5007790;28;20034;-63
2021/10/19 02:09:38;;;;;;;18.02;13.13;;;;;;;-140.79;100.00;63287.88;4990190;28;20064;-63
2021/10/19 02:12:04;;;;;;;19.42;14.00;;;;;;;-140.79;100.00;63287.88;5006686;28;20470;-63
2021/10/19 02:14:29;;;;;;;18.77;13.73;;;;;;;-140.79;100.00;63287.88;5008069;28;20520;-63
2021/10/19 02:16:55;;;;;;;18.80;13.32;;;;;;;-140.79;100.00;63287.88;5007097;28;20018;-63
2021/10/19 02:19:25;;;;;;;17.83;12.98;;;;;;;-140.79;100.00;63287.88;4989860;28;20041;-63
2021/10/19 02:21:50;;;;;;;18.70;13.63;;;;;;;-140.79;100.00;63287.88;5007552;28;20030;-63
2021/10/19 02:24:16;;;;;;;18.15;13.27;;;;;;;-140.79;100.00;63287.88;5007536;28;20072;-63
2021/10/19 02:26:41;;;;;;;18.65;13.63;;;;;;;-140.79;100.00;63287.88;5007472;28;20412;-63
2021/10/19 02:29:07;;;;;;;19.17;13.32;;;;;;;-140.79;100.00;63287.88;5005705;28;20025;-63
2021/10/19 02:31:33;;;;;;;17.98;13.25;;;;;;;-140.79;100.00;63287.88;5006050;28;20029;-63
2021/10/19 02:33:58;;;;;;;17.63;13.40;;;;;;;-140.79;100.00;63287.88;5007134;28;20463;-64
2021/10/19 02:36:23;;;;;;;18.15;13.88;;;;;;;-140.79;100.00;63287.88;5005905;28;20028;-63
2021/10/19 02:38:49;;;;;;;17.27;12.85;;;;;;;-140.79;100.00;63287.88;5006491;28;20029;-63
2021/10/19 02:41:14;;;;;;;19.23;13.48;;;;;;;-140.79;100.00;63287.88;5007312;28;20030;-63
2021/10/19 02:43:40;;;;;;;18.85;13.70;;;;;;;-140.79;100.00;63287.88;5006892;28;20558;-64
2021/10/19 02:46:05;;;;;;;19.40;13.40;;;;;;;-140.79;100.00;63287.88;5003958;28;20805;-64
2021/10/19 02:48:31;;;;;;;19.90;13.80;;;;;;;-140.79;100.00;63287.88;5005713;28;20037;-64
2021/10/19 02:50:56;;;;;;;18.35;13.95;;;;;;;-140.79;100.00;63287.88;5006535;28;20030;-64
2021/10/19 02:53:21;;;;;;;16.55;12.48;;;;;;;-140.79;100.00;63287.88;5007267;28;20030;-64
2021/10/19 02:55:47;;;;;;;19.00;13.55;;;;;;;-140.79;100.00;63287.88;5006776;28;20025;-64
2021/10/19 02:58:12;;;;;;;18.63;13.63;;;;;;;-140.79;100.00;63287.88;5006541;28;20021;-63
2021/10/19 03:00:38;;;;;;;18.40;13.40;;;;;;;-140.79;100.00;63287.88;4989019;28;20045;-64
2021/10/19 03:03:03;;;;;;;20.48;14.02;;;;;;;-140.79;100.00;63287.88;4988226;28;20064;-64
2021/10/19 03:05:29;;;;;;;18.88;13.93;;;;;;;-140.79;100.00;63287.88;5006178;28;20060;-64
2021/10/19 03:07:54;;;;;;;17.48;12.68;;;;;;;-140.79;100.00;63287.88;5006831;28;20026;-64
2021/10/19 03:10:20;;;;;;;19.15;13.38;;;;;;;-140.79;100.00;63287.88;5006520;28;20100;-64
2021/10/19 03:12:45;;;;;;;19.33;13.73;;;;;;;-140.79;100.00;63287.88;4989120;28;20115;-62
2021/10/19 03:15:11;;;;;;;17.60;13.32;;;;;;;-140.79;100.00;63287.88;5006802;28;20041;-62
2021/10/19 03:17:36;;;;;;;19.13;13.60;;;;;;;-140.79;100.00;63287.88;5006166;28;20627;-63
2021/10/19 03:20:02;;;;;;;16.33;12.23;;;;;;;-140.79;100.00;63287.88;4988660;28;20593;-62
2021/10/19 03:22:28;;;;;;;16.65;12.45;;;;;;;-140.79;100.00;63287.88;5006444;28;20037;-63
2021/10/19 03:24:53;;;;;;;16.98;12.65;;;;;;;-140.79;100.00;63287.88;5006257;28;20483;-64
2021/10/19 03:27:19;;;;;;;17.63;13.23;;;;;;;-140.79;100.00;63287.88;5005662;28;20030;-63
2021/10/19 03:29:44;;;;;;;16.75;12.40;;;;;;;-140.79;100.00;63287.88;5005914;28;20810;-63
2021/10/19 03:32:10;;;;;;;17.08;12.65;;;;;;;-140.79;100.00;63287.88;5006347;28;20048;-63
2021/10/19 03:34:36;;;;;;;15.73;12.10;;;;;;;-140.79;100.00;63287.88;5005912;28;20032;-63
2021/10/19 03:37:01;;;;;;;16.30;12.43;;;;;;;-140.79;100.00;63287.88;5005716;28;20056;-63
2021/10/19 03:39:27;;;;;;;15.88;11.73;;;;;;;-140.79;100.00;63287.88;5005791;28;20484;-63
2021/10/19 03:41:52;;;;;;;17.05;12.32;;;;;;;-140.79;100.00;63287.88;5005061;28;20030;-62
2021/10/19 03:44:18;;;;;;;19.40;12.32;;;;;;;-140.79;100.00;63287.88;4987483;28;20030;-66
2021/10/19 03:46:43;;;;;;;17.40;12.63;;;;;;;-140.79;100.00;63287.88;5005247;28;20045;-66
2021/10/19 03:49:09;;;;;;;19.63;12.20;;;;;;;-140.79;100.00;63287.88;5002673;28;20030;-66
2021/10/19 03:51:34;;;;;;;16.23;12.32;;;;;;;-140.79;100.00;63287.88;4986690;28;20030;-65
2021/10/19 03:53:59;;;;;;;16.42;11.48;;;;;;;-140.79;100.00;63287.88;4987023;28;20033;-65
2021/10/19 03:56:25;;;;;;;18.20;12.70;;;;;;;-140.79;100.00;63287.88;5004614;28;20091;-66
2021/10/19 03:58:50;;;;;;;17.05;12.13;;;;;;;-140.79;100.00;63287.88;5004998;28;20088;-66
2021/10/19 04:01:16;;;;;;;15.45;11.50;;;;;;;-140.79;100.00;63287.88;4987103;28;20030;-66
2021/10/19 04:03:42;;;;;;;17.67;12.68;;;;;;;-140.79;100.00;63287.88;5003470;28;20103;-66
2021/10/19 04:06:08;;;;;;;17.50;12.48;;;;;;;-140.79;100.00;63287.88;5005071;28;20026;-66
2021/10/19 04:08:34;;;;;;;18.75;12.55;;;;;;;-140.79;100.00;63287.88;4963815;28;20157;-66
2021/10/19 04:10:59;;;;;;;16.13;11.88;;;;;;;-140.79;100.00;63287.88;5009923;28;21726;-66
2021/10/19 04:13:24;;;;;;;16.92;12.75;;;;;;;-140.79;100.00;63287.88;4987873;28;20021;-66
2021/10/19 04:15:50;;;;;;;16.88;11.35;;;;;;;-140.79;100.00;63287.88;4987523;28;20052;-66
2021/10/19 04:18:15;;;;;;;15.50;12.02;;;;;;;-140.79;100.00;63287.88;4987436;28;20271;-67
2021/10/19 04:20:41;;;;;;;16.42;12.43;;;;;;;-140.79;100.00;63287.88;5004506;28;20648;-65
2021/10/19 04:23:06;;;;;;;18.05;12.50;;;;;;;-140.79;100.00;63287.88;5005139;28;20022;-66
2021/10/19 04:25:32;;;;;;;15.52;11.57;;;;;;;-140.79;100.00;63287.88;4971004;28;20033;-66
2021/10/19 04:27:57;;;;;;;15.85;11.48;;;;;;;-140.79;100.00;63287.88;5004191;28;20563;-66
2021/10/19 04:30:22;;;;;;;16.00;11.65;;;;;;;-140.79;100.00;63287.88;5004590;28;20034;-66
2021/10/19 04:32:48;;;;;;;15.70;11.30;;;;;;;-140.79;100.00;63287.88;4995859;28;20033;-66
2021/10/19 04:35:13;;;;;;;15.63;11.25;;;;;;;-140.79;100.00;63287.88;5004570;28;20052;-67
2021/10/19 04:37:39;;;;;;;15.70;11.80;;;;;;;-140.79;100.00;63287.88;4986483;28;20030;-65
2021/10/19 04:40:05;;;;;;;15.52;11.90;;;;;;;-140.79;100.00;63287.88;4986222;28;20026;-66
2021/10/19 04:42:33;;;;;;;16.08;11.35;;;;;;;-140.79;100.00;63287.88;5002756;28;20102;-66
2021/10/19 04:45:00;;;;;;;16.45;11.52;;;;;;;-140.79;100.00;63287.88;5001376;28;20033;-69
2021/10/19 04:47:25;;;;;;;16.58;11.95;;;;;;;-140.79;100.00;63287.88;5004504;28;20025;-68
2021/10/19 04:49:50;;;;;;;14.82;11.40;;;;;;;-140.79;100.00;63287.88;4987056;28;20022;-69
2021/10/19 04:52:16;;;;;;;13.35;10.85;;;;;;;-140.79;100.00;63287.88;5005154;28;20111;-70
2021/10/19 04:54:41;;;;;;;14.38;10.88;;;;;;;-140.79;100.00;63287.88;5004976;28;20025;-67
2021/10/19 04:57:07;;;;;;;15.32;11.30;;;;;;;-140.79;100.00;63287.88;5004654;28;20395;-68
2021/10/19 04:59:32;;;;;;;15.68;11.15;;;;;;;-140.79;100.00;63287.88;5003515;28;20499;-67
2021/10/19 05:01:57;;;;;;;14.23;10.68;;;;;;;-140.79;100.00;63287.88;5004017;28;20081;-68
2021/10/19 05:04:23;;;;;;;14.43;10.80;;;;;;;-140.79;100.00;63287.88;4982391;28;20230;-68
2021/10/19 05:06:48;;;;;;;14.90;10.95;;;;;;;-140.79;100.00;63287.88;4984789;28;20421;-65
2021/10/19 05:09:14;;;;;;;14.43;10.85;;;;;;;-140.79;100.00;63287.88;4984590;28;20074;-66
2021/10/19 05:11:39;;;;;;;14.50;10.68;;;;;;;-140.79;100.00;63287.88;4983698;28;20084;-65
2021/10/19 05:14:05;;;;;;;13.68;10.02;;;;;;;-140.79;100.00;63287.88;4984717;28;20022;-66
2021/10/19 05:16:30;;;;;;;15.52;9.73;;;;;;;-140.79;100.00;63287.88;4985911;28;20100;-63
2021/10/19 05:18:56;;;;;;;15.07;9.88;;;;;;;-140.79;100.00;63287.88;4979049;28;20034;-65
2021/10/19 05:21:21;;;;;;;13.75;9.52;;;;;;;-140.79;100.00;63287.88;4982644;28;20704;-65
2021/10/19 05:23:47;;;;;;;11.88;9.25;;;;;;;-140.79;100.00;63287.88;4984871;28;20555;-68
2021/10/19 05:26:13;;;;;;;12.40;8.73;;;;;;;-140.79;100.00;63287.88;4983224;28;20295;-68
2021/10/19 05:28:39;;;;;;;11.77;8.80;;;;;;;-140.79;100.00;63287.88;4983239;28;20030;-68
2021/10/19 05:31:04;;;;;;;12.10;8.95;;;;;;;-140.79;100.00;63287.88;4983391;28;20064;-63
2021/10/19 05:33:30;;;;;;;12.80;9.57;;;;;;;-140.79;100.00;63287.88;4983712;28;20778;-67
2021/10/19 05:35:55;;;;;;;12.35;8.43;;;;;;;-140.79;100.00;63287.88;4989649;28;20028;-67
2021/10/19 05:38:21;;;;;;;10.90;8.40;;;;;;;-140.79;100.00;63287.88;4983909;28;20053;-69
2021/10/19 05:40:47;;;;;;;12.77;8.32;;;;;;;-140.79;100.00;63287.88;4983650;28;20034;-64
2021/10/19 05:43:12;;;;;;;12.45;8.68;;;;;;;-140.79;100.00;63287.88;4983690;28;20049;-68
2021/10/19 05:45:38;;;;;;;12.10;8.35;;;;;;;-140.79;100.00;63287.88;4985308;28;20416;-68
2021/10/19 05:48:03;;;;;;;10.63;7.65;;;;;;;-140.79;100.00;63287.88;4985756;28;20022;-69
2021/10/19 05:50:31;;;;;;;12.02;8.18;;;;;;;-140.79;100.00;63287.88;4984279;28;20122;-69
2021/10/19 05:52:56;;;;;;;11.95;7.97;;;;;;;-140.79;100.00;63287.88;4983846;28;20345;-69
2021/10/19 05:55:22;;;;;;;10.65;7.80;;;;;;;-140.79;100.00;63287.88;4984037;28;20029;-69
2021/10/19 05:57:47;;;;;;;10.77;7.25;;;;;;;-140.79;100.00;63287.88;4985752;28;20035;-69
2021/10/19 06:00:13;;;;;;;12.05;7.95;;;;;;;-140.79;100.00;63287.88;4987683;28;20037;-69
2021/10/19 06:02:38;;;;;;;10.90;7.60;;;;;;;-140.79;100.00;63287.88;4986138;28;20105;-68
2021/10/19 06:05:04;;;;;;;12.35;7.68;;;;;;;-140.79;100.00;63287.88;4985838;28;20034;-68
2021/10/19 06:07:29;;;;;;;11.80;7.50;;;;;;;-140.79;100.00;63287.88;4987128;28;20030;-68
2021/10/19 06:09:55;;;;;;;10.02;7.25;;;;;;;-140.79;100.00;63287.88;4987438;28;20030;-66
2021/10/19 06:12:20;;;;;;;10.93;6.72;;;;;;;-140.79;100.00;63287.88;4986620;28;20030;-67
2021/10/19 06:14:46;;;;;;;10.60;7.20;;;;;;;-140.79;100.00;63287.88;4985838;28;20053;-67
2021/10/19 06:17:11;;;;;;;10.13;7.22;;;;;;;-140.79;100.00;63287.88;4985590;28;20038;-65
2021/10/19 06:19:37;;;;;;;9.55;6.70;;;;;;;-140.79;100.00;63287.88;4986488;28;20118;-66
2021/10/19 06:22:02;;;;;;;9.43;6.70;;;;;;;-140.79;100.00;63287.88;4986063;28;20041;-69
2021/10/19 06:24:28;;;;;;;10.15;6.95;;;;;;;-140.79;100.00;63287.88;4966812;28;20420;-70
2021/10/19 06:26:53;;;;;;;9.75;6.95;;;;;;;-140.79;100.00;63287.88;4985726;28;20041;-70
2021/10/19 06:29:19;;;;;;;10.27;6.80;;;;;;;-140.79;100.00;63287.88;4986070;28;20484;-70
2021/10/19 06:31:45;;;;;;;13.18;7.90;;;;;;;-140.79;100.00;63287.88;4983337;28;20080;-69
2021/10/19 06:34:10;;;;;;;9.48;6.05;;;;;;;-140.79;100.00;63287.88;4986519;28;20515;-70
2021/10/19 06:36:35;;;;;;;9.52;6.68;;;;;;;-140.79;100.00;63287.88;4985742;28;20632;-67
2021/10/19 06:39:01;;;;;;;9.30;6.70;;;;;;;-140.79;100.00;63287.88;4985828;28;20046;-65
2021/10/19 06:41:27;;;;;;;9.40;6.95;;;;;;;-140.79;100.00;63287.88;4984230;28;20038;-66
2021/10/19 06:43:52;;;;;;;9.10;6.90;;;;;;;-140.79;100.00;63287.88;4969271;28;20033;-66
2021/10/19 06:46:17;;;;;;;7.93;6.00;;;;;;;-140.79;100.00;63287.88;4968380;28;20140;-66
2021/10/19 06:48:43;;;;;;;9.30;6.70;;;;;;;-140.79;100.00;63287.88;4985262;28;20019;-62
2021/10/19 06:51:11;;;;;;;8.20;6.28;;;;;;;-140.79;100.00;63287.88;4968599;28;20018;-63
2021/10/19 06:53:37;;;;;;;8.95;6.50;;;;;;;-140.79;100.00;63287.88;4984227;28;20030;-66
2021/10/19 06:56:03;;;;;;;8.77;5.95;;;;;;;-140.79;100.00;63287.88;4983770;28;20032;-66
2021/10/19 06:58:28;;;;;;;8.50;6.00;;;;;;;-140.79;100.00;63287.88;4972025;28;20064;-66
2021/10/19 07:00:54;;;;;;;8.93;6.10;;;;;;;-140.79;100.00;63287.88;4968040;28;20042;-66
2021/10/19 07:03:19;;;;;;;8.30;5.90;;;;;;;-140.79;100.00;63287.88;4969992;28;20545;-65
2021/10/19 07:05:45;;;;;;;8.27;6.25;;;;;;;-140.79;100.00;63287.88;4986877;28;20031;-66
2021/10/19 07:08:11;;;;;;;9.45;6.60;;;;;;;-140.79;100.00;63287.88;4985113;28;20605;-65
2021/10/19 07:10:36;;;;;;;8.73;6.05;;;;;;;-140.79;100.00;63287.88;4986667;28;20034;-65
2021/10/19 07:13:03;;;;;;;7.40;6.20;;;;;;;-140.79;100.00;63287.88;4985858;28;20062;-66
2021/10/19 07:15:34;;;;;;;10.05;6.50;;;;;;;-140.79;100.00;63287.88;4985843;28;20028;-65
2021/10/19 07:18:00;;;;;;;8.15;5.78;;;;;;;-140.79;100.00;63287.88;4984525;28;20112;-65
2021/10/19 07:20:26;;;;;;;10.10;6.05;;;;;;;-140.79;100.00;63287.88;4968476;28;20022;-66
2021/10/19 07:22:51;;;;;;;8.60;5.90;;;;;;;-140.79;100.00;63287.88;4985320;28;20515;-65
2021/10/19 07:25:17;;;;;;;9.13;6.13;;;;;;;-140.79;100.00;63287.88;4985205;28;20038;-66
2021/10/19 07:27:44;;;;;;;9.68;6.60;;;;;;;-140.79;100.00;63287.88;4967466;28;20033;-66
2021/10/19 07:30:09;;;;;;;9.30;5.53;;;;;;;-140.79;100.00;63287.88;4968210;28;20701;-66
2021/10/19 07:32:35;;;;;;;10.23;6.05;;;;;;;-140.79;100.00;63287.88;4985085;28;20045;-66
2021/10/19 07:35:00;;;;;;;8.20;5.43;;;;;;;-140.79;100.00;63287.88;4982409;28;20085;-66
2021/10/19 07:37:26;;;;;;;9.38;5.82;;;;;;;-140.79;100.00;63287.88;4983991;28;20485;-66
2021/10/19 07:39:51;;;;;;;9.15;5.88;;;;;;;-140.79;100.00;63287.88;4967404;28;20037;-66
2021/10/19 07:42:17;;;;;;;9.02;5.93;;;;;;;-140.79;100.00;63287.88;4967243;28;20492;-66
2021/10/19 07:44:43;;;;;;;8.00;5.75;;;;;;;-140.79;100.00;63287.88;4985168;28;20061;-66
2021/10/19 07:47:09;;;;;;;7.68;5.47;;;;;;;-140.79;100.00;63287.88;4967936;28;20024;-66
2021/10/19 07:49:34;;;;;;;8.73;5.93;;;;;;;-140.79;100.00;63287.88;4984351;28;20034;-67
2021/10/19 07:51:59;;;;;;;7.97;5.93;;;;;;;-140.79;100.00;63287.88;4983238;28;20386;-64
2021/10/19 07:54:25;;;;;;;8.00;5.63;;;;;;;-140.79;100.00;63287.88;4967540;28;20026;-65
2021/10/19 07:56:50;;;;;;;8.93;6.22;;;;;;;-140.79;100.00;63287.88;4984357;28;20027;-64
2021/10/19 07:59:16;;;;;;;8.63;5.53;;;;;;;-140.79;100.00;63287.88;4981503;28;20041;-66
2021/10/19 08:01:42;;;;;;;9.77;5.95;;;;;;;-140.79;100.00;63287.88;4984024;28;20049;-65
2021/10/19 08:04:07;;;;;;;8.50;5.43;;;;;;;-140.79;100.00;63287.88;4968287;28;20078;-64
2021/10/19 08:06:33;;;;;;;10.15;5.35;;;;;;;-140.79;100.00;63287.88;4964377;28;20022;-64
2021/10/19 08:09:00;;;;;;;8.25;5.47;;;;;;;-140.79;100.00;63287.88;4965004;28;20049;-65
2021/10/19 08:11:25;;;;;;;7.63;5.22;;;;;;;-140.79;100.00;63287.88;4965133;28;20027;-65
2021/10/19 08:13:54;;;;;;;7.00;5.47;;;;;;;-140.79;100.00;63287.88;4964675;28;20026;-65
2021/10/19 08:16:19;;;;;;;8.23;5.78;;;;;;;-140.79;100.00;63287.88;4946359;28;20030;-65
2021/10/19 08:18:44;;;;;;;7.85;5.63;;;;;;;-140.79;100.00;63287.88;4962497;28;20568;-66
2021/10/19 08:21:10;;;;;;;6.72;4.80;;;;;;;-140.79;100.00;63287.88;4964599;28;20086;-66
2021/10/19 08:23:35;;;;;;;9.18;5.88;;;;;;;-140.79;100.00;63287.88;4964418;28;20599;-66
2021/10/19 08:26:01;;;;;;;8.30;5.72;;;;;;;-140.79;100.00;63287.88;4961155;28;20647;-66
2021/10/19 08:28:31;;;;;;;7.68;5.45;;;;;;;-140.79;100.00;63287.88;4962503;28;20047;-66
2021/10/19 08:30:56;;;;;;;7.93;5.22;;;;;;;-140.79;100.00;63287.88;4961944;28;20222;-66
2021/10/19 08:33:22;;;;;;;6.88;5.13;;;;;;;-140.79;100.00;63287.88;4937858;28;20555;-66
2021/10/19 08:35:47;;;;;;;7.85;5.35;;;;;;;-140.79;100.00;63287.88;4964955;28;20015;-65
2021/10/19 08:38:13;;;;;;;8.48;5.07;;;;;;;-140.79;100.00;63287.88;4914826;28;20018;-66
2021/10/19 08:40:40;;;;;;;7.13;5.20;;;;;;;-140.79;100.00;63287.88;4977487;28;20035;-65
2021/10/19 08:43:06;;;;;;;8.10;5.43;;;;;;;-140.79;100.00;63287.88;4963976;28;20038;-65
2021/10/19 08:45:31;;;;;;;7.82;5.30;;;;;;;-140.79;100.00;63287.88;4963296;28;20023;-65
2021/10/19 08:47:57;;;;;;;8.50;5.82;;;;;;;-140.79;100.00;63287.88;4964296;28;20070;-65
2021/10/19 08:50:25;;;;;;;7.80;5.28;;;;;;;-140.79;100.00;63287.88;4948448;28;20033;-64
2021/10/19 08:52:51;;;;;;;7.38;5.38;;;;;;;-140.79;100.00;63287.88;4963638;28;20065;-65
2021/10/19 08:55:17;;;;;;;7.82;5.57;;;;;;;-140.79;100.00;63287.88;4948167;28;20050;-68
2021/10/19 08:57:46;;;;;;;8.93;5.50;;;;;;;-140.79;100.00;63287.88;4969076;28;20494;-65
2021/10/19 09:00:12;;;;;;;7.50;5.45;;;;;;;-140.79;100.00;63287.88;4937998;28;20022;-65
2021/10/19 09:02:39;;;;;;;8.35;5.43;;;;;;;-140.79;100.00;63287.88;4966930;28;20109;-66
2021/10/19 09:05:06;;;;;;;7.25;4.85;;;;;;;-140.79;100.00;63287.88;4964865;28;20109;-65
2021/10/19 09:07:31;;;;;;;7.88;5.28;;;;;;;-140.79;100.00;63287.88;4965914;28;20118;-63
2021/10/19 09:09:57;;;;;;;8.95;5.50;;;;;;;-140.79;100.00;63287.88;4965404;28;20042;-63
2021/10/19 09:12:23;;;;;;;8.25;4.95;;;;;;;-140.79;100.00;63287.88;4965758;28;20498;-62
2021/10/19 09:14:48;;;;;;;6.75;5.10;;;;;;;-140.79;100.00;63287.88;4964900;28;20497;-62
2021/10/19 09:17:14;;;;;;;7.28;5.05;;;;;;;-140.79;100.00;63287.88;4964793;28;20030;-63
2021/10/19 09:19:41;;;;;;;7.32;4.93;;;;;;;-140.79;100.00;63287.88;4955569;28;20031;-61
2021/10/19 09:22:08;;;;;;;6.70;4.72;;;;;;;-140.79;100.00;63287.88;4929130;28;20110;-63
2021/10/19 09:24:37;;;;;;;8.90;4.95;;;;;;;-140.79;100.00;63287.88;4946175;28;20031;-63
2021/10/19 09:27:10;;;;;;;6.82;5.13;;;;;;;-140.79;100.00;63287.88;4965123;28;20031;-63
2021/10/19 09:29:49;;;;;;;7.45;5.10;;;;;;;-140.79;100.00;63287.88;4946628;28;20031;-80
2021/10/19 09:32:15;;;;;;;7.35;4.82;;;;;;;-140.79;100.00;63287.88;4964348;28;20615;-63
2021/10/19 09:34:44;;;;;;;7.72;4.90;;;;;;;-140.79;100.00;63287.88;4967004;28;20027;-63
2021/10/19 09:37:10;;;;;;;8.30;4.95;;;;;;;-140.79;100.00;63287.88;4966822;28;20026;-62
2021/10/19 09:39:49;;;;;;;7.88;5.30;;;;;;;-140.79;100.00;63287.88;4967263;28;20543;-63
2021/10/19 09:42:18;;;;;;;9.67;5.00;;;;;;;-140.79;100.00;63287.88;4967837;28;20037;-63
2021/10/19 09:44:52;;;;;;;8.18;4.72;;;;;;;-140.79;100.00;63287.88;4967479;28;20520;-63
2021/10/19 09:47:17;;;;;;;6.88;4.38;;;;;;;-140.79;100.00;63287.88;4967408;28;20484;-64
2021/10/19 09:49:43;;;;;;;6.95;4.55;;;;;;;-140.79;100.00;63287.88;4950224;28;20022;-63
2021/10/19 09:52:08;;;;;;;7.72;4.80;;;;;;;-140.79;100.00;63287.88;4967334;28;20023;-63
2021/10/19 09:54:34;;;;;;;8.45;5.25;;;;;;;-140.79;100.00;63287.88;4967516;28;20518;-63
2021/10/19 09:57:00;;;;;;;7.32;4.63;;;;;;;-140.79;100.00;63287.88;4933583;28;20015;-63
2021/10/19 09:59:25;;;;;;;7.93;4.97;;;;;;;-140.79;100.00;63287.88;4950252;28;20027;-63
2021/10/19 10:01:51;;;;;;;7.75;4.95;;;;;;;-140.79;100.00;63287.88;4968495;28;20027;-63
2021/10/19 10:04:17;;;;;;;8.10;5.00;;;;;;;-140.79;100.00;63287.88;4986798;28;20132;-65
2021/10/19 10:06:42;;;;;;;9.18;5.28;;;;;;;-140.79;100.00;63287.88;4946195;28;20057;-63
2021/10/19 10:09:08;;;;;;;9.23;5.20;;;;;;;-140.79;100.00;63287.88;4969718;28;20424;-62
2021/10/19 10:11:33;;;;;;;9.85;5.10;;;;;;;-140.79;100.00;63287.88;4987732;28;20081;-62
2021/10/19 10:14:02;;;;;;;9.20;4.93;;;;;;;-140.79;100.00;63287.88;4986398;28;20432;-66
2021/10/19 10:16:28;;;;;;;8.00;4.95;;;;;;;-140.79;100.00;63287.88;4987361;28;20420;-65
2021/10/19 10:18:53;;;;;;;7.32;4.57;;;;;;;-140.79;100.00;63287.88;4969414;28;20026;-64
2021/10/19 10:21:21;;;;;;;9.73;5.20;;;;;;;-140.79;100.00;63287.88;4986773;28;20037;-63
2021/10/19 10:23:57;;;;;;;8.60;5.35;;;;;;;-140.79;100.00;63287.88;4987392;28;20493;-63
2021/10/19 10:26:25;;;;;;;7.32;4.82;;;;;;;-140.79;100.00;63287.88;4971827;28;20034;-63
2021/10/19 10:28:50;;;;;;;8.13;4.80;;;;;;;-140.79;100.00;63287.88;4968040;28;20046;-61
2021/10/19 10:31:21;;;;;;;10.25;5.18;;;;;;;-140.79;100.00;63287.88;4986917;28;20022;-63
2021/10/19 10:33:49;;;;;;;9.70;4.93;;;;;;;-140.79;100.00;63287.88;4953542;28;20029;-63
2021/10/19 10:36:15;;;;;;;7.60;4.40;;;;;;;-140.79;100.00;63287.88;4969303;28;20113;-63
2021/10/19 10:38:57;;;;;;;11.93;4.60;;;;;;;-140.79;100.00;63287.88;4986675;28;20026;-67
2021/10/19 10:41:22;;;;;;;9.98;4.95;;;;;;;-140.79;100.00;63287.88;4967424;28;20699;-69
2021/10/19 10:44:06;;;;;;;8.32;4.55;;;;;;;-140.79;100.00;63287.88;4982401;28;20022;-64
2021/10/19 10:46:32;;;;;;;7.75;4.85;;;;;;;-140.79;100.00;63287.88;4964711;28;20028;-67
2021/10/19 10:48:57;;;;;;;9.32;4.68;;;;;;;-140.79;100.00;63287.88;4985414;28;20030;-66
2021/10/19 10:51:30;;;;;;;7.05;4.57;;;;;;;-140.79;100.00;63287.88;4969553;28;20041;-68
2021/10/19 10:53:56;;;;;;;7.38;4.43;;;;;;;-140.79;100.00;63287.88;4985662;28;20030;-64
2021/10/19 10:56:21;;;;;;;9.70;5.47;;;;;;;-140.79;100.00;63287.88;4969109;28;20026;-64
2021/10/19 10:58:48;;;;;;;8.63;4.60;;;;;;;-140.79;100.00;63287.88;4968403;28;20034;-68